Time;durP1;ratioP1;P1;durP2;ratioP2;P2;SDS_P1;SDS_P2;PMS_P1;PMS_P2;Temp;Humidity;BMP_temperature;BMP_pressure;BME280_temperature;BME280_humidity;BME280_pressure;Samples;Min_cycle;Max_cycle;Signal;HPM_P1;HPM_P2
2023/01/24 00:01:42;;;;;;;29.40;20.92;;;4.10;99.90;;;;;;5076461;28;20036;-58
2023/01/24 00:04:08;;;;;;;31.35;20.70;;;4.20;99.90;;;;;;5060358;28;20028;-59
2023/01/24 00:06:33;;;;;;;32.83;20.95;;;4.30;99.90;;;;;;5063134;28;20103;-59
2023/01/24 00:08:59;;;;;;;33.65;21.25;;;4.40;99.90;;;;;;5063054;28;20021;-59
2023/01/24 00:11:25;;;;;;;30.65;20.55;;;4.30;99.90;;;;;;5062903;28;20111;-59
2023/01/24 00:13:51;;;;;;;29.95;20.55;;;4.20;99.90;;;;;;5080167;28;20024;-59
2023/01/24 00:16:20;;;;;;;29.63;20.25;;;4.20;99.90;;;;;;5080261;28;20119;-59
2023/01/24 00:18:46;;;;;;;31.92;20.77;;;4.20;99.90;;;;;;5079998;28;20056;-59
2023/01/24 00:21:18;;;;;;;30.13;20.38;;;4.10;99.90;;;;;;5080186;28;20031;-59
2023/01/24 00:23:50;;;;;;;33.00;21.27;;;4.20;99.90;;;;;;5062672;28;20098;-59
2023/01/24 00:26:17;;;;;;;31.10;20.67;;;4.10;99.90;;;;;;5062759;28;20029;-60
2023/01/24 00:28:45;;;;;;;32.28;21.42;;;4.20;99.90;;;;;;5062515;28;20040;-60
2023/01/24 00:31:11;;;;;;;34.13;22.40;;;4.10;99.90;;;;;;5062712;28;20081;-59
2023/01/24 00:33:37;;;;;;;33.83;21.23;;;4.00;99.90;;;;;;5079702;28;20072;-59
2023/01/24 00:36:04;;;;;;;36.28;23.10;;;3.90;99.90;;;;;;5062445;28;20324;-59
2023/01/24 00:38:31;;;;;;;33.15;21.95;;;4.20;99.90;;;;;;5079645;28;20047;-60
2023/01/24 00:40:58;;;;;;;34.53;23.05;;;4.30;99.90;;;;;;5080373;28;20021;-60
2023/01/24 00:43:25;;;;;;;34.72;23.10;;;4.40;99.90;;;;;;5079684;28;20021;-59
2023/01/24 00:45:53;;;;;;;33.03;21.65;;;4.30;99.90;;;;;;5062205;28;20033;-59
2023/01/24 00:48:21;;;;;;;36.33;23.65;;;4.40;99.90;;;;;;5079561;28;20044;-59
2023/01/24 00:50:47;;;;;;;35.67;23.70;;;4.40;99.90;;;;;;5079751;28;20115;-59
2023/01/24 00:53:12;;;;;;;33.55;22.90;;;4.20;99.90;;;;;;5079395;28;20032;-59
2023/01/24 00:55:46;;;;;;;33.78;21.83;;;4.20;99.90;;;;;;5079441;28;20044;-59
2023/01/24 00:58:13;;;;;;;33.08;21.75;;;4.30;99.90;;;;;;5061971;28;20040;-59
2023/01/24 01:00:39;;;;;;;34.45;21.85;;;4.40;99.90;;;;;;5062208;28;20043;-59
2023/01/24 01:03:07;;;;;;;36.17;22.27;;;4.50;99.90;;;;;;5079586;28;20035;-59
2023/01/24 01:05:33;;;;;;;33.80;21.92;;;4.50;99.90;;;;;;5061816;28;20105;-60
2023/01/24 01:07:59;;;;;;;35.40;22.80;;;4.30;99.90;;;;;;5079433;28;20029;-60
2023/01/24 01:10:24;;;;;;;35.63;22.52;;;4.20;99.90;;;;;;5079239;28;20029;-59
2023/01/24 01:12:50;;;;;;;35.15;23.63;;;4.20;99.90;;;;;;5079079;28;20051;-59
2023/01/24 01:15:16;;;;;;;33.05;21.88;;;4.00;99.90;;;;;;5077767;28;20323;-60
2023/01/24 01:17:42;;;;;;;31.15;21.13;;;4.00;99.90;;;;;;5061174;28;20032;-59
2023/01/24 01:20:08;;;;;;;32.22;21.73;;;4.20;99.90;;;;;;5079534;28;20025;-60
2023/01/24 01:22:34;;;;;;;34.00;21.92;;;4.10;99.90;;;;;;5061353;28;20033;-60
2023/01/24 01:25:01;;;;;;;35.03;21.80;;;4.00;99.90;;;;;;5078970;28;20060;-59
2023/01/24 01:27:26;;;;;;;32.28;21.25;;;4.00;99.90;;;;;;5079134;28;20320;-59
2023/01/24 01:29:52;;;;;;;33.10;21.92;;;4.00;99.90;;;;;;5079623;28;20392;-60
2023/01/24 01:32:19;;;;;;;32.92;22.08;;;4.10;99.90;;;;;;5061152;28;20033;-60
2023/01/24 01:34:44;;;;;;;32.13;20.83;;;4.20;99.90;;;;;;5079032;28;20032;-60
2023/01/24 01:37:10;;;;;;;33.10;21.95;;;4.40;99.90;;;;;;5078546;28;20044;-59
2023/01/24 01:39:37;;;;;;;35.85;23.13;;;4.20;99.90;;;;;;5078450;28;20373;-59
2023/01/24 01:42:03;;;;;;;37.00;23.88;;;4.10;99.90;;;;;;5061241;28;20024;-59
2023/01/24 01:44:49;;;;;;;36.22;23.10;;;4.00;99.90;;;;;;5044546;28;20032;-59
2023/01/24 01:47:36;;;;;;;37.15;23.50;;;3.90;99.90;;;;;;5078362;28;20028;-59
2023/01/24 01:50:38;;;;;;;35.97;23.98;;;3.90;99.90;;;;;;5078195;28;20315;-60
2023/01/24 01:53:04;;;;;;;40.22;23.85;;;3.90;99.90;;;;;;5075711;28;20095;-59
2023/01/24 01:55:35;;;;;;;39.80;24.17;;;3.80;99.90;;;;;;5078325;28;20299;-59
2023/01/24 01:58:02;;;;;;;35.50;22.80;;;3.70;99.90;;;;;;5044218;28;20036;-59
2023/01/24 02:00:28;;;;;;;32.75;22.27;;;3.80;99.90;;;;;;5078172;28;20295;-59
2023/01/24 02:05:50;;;;;;;33.95;22.35;;;3.80;99.90;;;;;;5064729;28;20024;-59
2023/01/24 02:08:21;;;;;;;32.63;21.40;;;3.90;99.90;;;;;;5078027;28;20029;-59
2023/01/24 02:13:35;;;;;;;31.75;21.05;;;3.80;99.90;;;;;;5077995;28;20040;-59
2023/01/24 02:16:04;;;;;;;30.42;20.60;;;3.90;99.90;;;;;;5077879;28;20040;-59
2023/01/24 02:18:31;;;;;;;30.55;20.52;;;3.90;99.90;;;;;;5077778;28;20039;-59
2023/01/24 02:20:57;;;;;;;31.20;21.13;;;3.90;99.90;;;;;;5077867;28;20024;-59
2023/01/24 02:23:29;;;;;;;33.47;21.75;;;3.90;99.90;;;;;;5077727;28;20351;-59
2023/01/24 02:26:15;;;;;;;31.13;20.45;;;3.80;99.90;;;;;;5060312;28;20032;-59
2023/01/24 02:28:50;;;;;;;32.10;21.85;;;3.80;99.90;;;;;;5060240;28;20036;-59
2023/01/24 02:31:16;;;;;;;29.17;19.58;;;3.80;99.90;;;;;;5077670;28;20288;-59
2023/01/24 02:33:42;;;;;;;30.83;20.25;;;3.80;99.90;;;;;;5060077;28;20046;-59
2023/01/24 02:36:16;;;;;;;30.20;19.55;;;4.10;99.90;;;;;;5077545;28;20036;-59
2023/01/24 02:38:48;;;;;;;32.15;19.58;;;4.10;99.90;;;;;;5076608;28;20032;-59
2023/01/24 02:41:17;;;;;;;27.48;18.33;;;4.10;99.90;;;;;;5059946;28;20025;-59
2023/01/24 02:43:48;;;;;;;27.52;18.63;;;4.00;99.90;;;;;;5077139;28;20029;-59
2023/01/24 02:46:14;;;;;;;26.00;17.67;;;3.80;99.90;;;;;;5077364;28;20029;-59
2023/01/24 02:48:40;;;;;;;27.63;18.42;;;3.80;99.90;;;;;;5059798;28;20062;-59
2023/01/24 02:53:50;;;;;;;26.05;17.88;;;3.90;99.90;;;;;;5062505;28;20085;-60
2023/01/24 02:59:00;;;;;;;27.00;18.17;;;3.90;99.90;;;;;;5059626;28;20068;-58
2023/01/24 03:01:29;;;;;;;28.90;18.63;;;4.00;99.90;;;;;;5060491;28;20325;-58
2023/01/24 03:03:55;;;;;;;27.23;18.58;;;4.00;99.90;;;;;;5077007;28;20036;-59
2023/01/24 03:06:21;;;;;;;26.58;17.38;;;4.00;99.90;;;;;;5077019;28;20469;-58
2023/01/24 03:08:48;;;;;;;28.88;18.27;;;3.80;99.90;;;;;;5076830;28;20031;-58
2023/01/24 03:11:26;;;;;;;27.77;17.25;;;3.90;99.90;;;;;;5059601;28;20032;-59
2023/01/24 03:35:55;;;;;;;26.15;16.98;;;4.00;99.90;;;;;;5059603;28;20433;-59
2023/01/24 03:41:10;;;;;;;24.27;16.23;;;4.20;99.90;;;;;;5063460;28;20028;-59
2023/01/24 03:43:37;;;;;;;22.70;15.30;;;3.90;99.90;;;;;;5046985;28;20032;-59
2023/01/24 03:46:04;;;;;;;23.08;16.08;;;3.90;99.90;;;;;;5063271;28;20028;-58
2023/01/24 03:48:50;;;;;;;24.15;16.60;;;3.90;99.90;;;;;;5079963;28;20040;-59
2023/01/24 03:54:02;;;;;;;23.83;17.05;;;4.10;99.90;;;;;;5063121;28;20070;-59
2023/01/24 03:56:36;;;;;;;24.92;16.67;;;4.10;99.90;;;;;;5047550;28;20360;-61
2023/01/24 03:59:03;;;;;;;25.25;15.85;;;3.90;99.90;;;;;;5046610;28;20028;-58
2023/01/24 04:01:32;;;;;;;22.52;15.35;;;3.80;99.90;;;;;;5079804;28;20094;-58
2023/01/24 04:04:06;;;;;;;25.42;16.88;;;3.60;99.90;;;;;;5063483;28;20292;-58
2023/01/24 04:06:31;;;;;;;25.20;16.38;;;3.80;99.90;;;;;;5080410;28;20025;-58
2023/01/24 04:08:58;;;;;;;26.40;17.20;;;4.00;99.90;;;;;;5062881;28;20384;-57
2023/01/24 04:11:25;;;;;;;24.48;16.27;;;4.20;99.90;;;;;;5062874;28;20416;-59
2023/01/24 04:13:56;;;;;;;24.50;15.68;;;4.10;99.90;;;;;;5062818;28;20036;-58
2023/01/24 04:16:23;;;;;;;23.75;16.35;;;3.90;99.90;;;;;;5062770;28;20307;-59
2023/01/24 04:18:51;;;;;;;23.08;15.90;;;3.90;99.90;;;;;;5046198;28;20040;-59
2023/01/24 04:21:20;;;;;;;22.55;15.23;;;4.00;99.90;;;;;;5062651;28;20033;-58
2023/01/24 04:23:46;;;;;;;25.63;16.80;;;3.90;99.90;;;;;;5062603;28;20316;-58
2023/01/24 04:26:12;;;;;;;22.08;15.73;;;4.00;99.90;;;;;;5062671;28;20025;-58
2023/01/24 04:28:38;;;;;;;22.48;15.15;;;4.10;99.90;;;;;;5079901;28;20046;-58
2023/01/24 04:31:05;;;;;;;24.13;16.05;;;4.00;99.90;;;;;;5062393;28;20099;-59
2023/01/24 04:33:56;;;;;;;23.58;15.50;;;4.10;99.90;;;;;;5075753;28;20051;-59
2023/01/24 04:36:26;;;;;;;23.27;15.60;;;4.00;99.90;;;;;;5062615;28;20028;-58
2023/01/24 04:38:54;;;;;;;23.13;15.30;;;4.10;99.90;;;;;;5045503;28;20296;-58
2023/01/24 04:41:24;;;;;;;16.98;10.85;;;4.20;99.90;;;;;;5062130;28;20056;-58
2023/01/24 04:43:50;;;;;;;24.55;15.90;;;4.20;99.90;;;;;;5062072;28;20036;-59
2023/01/24 04:46:16;;;;;;;24.65;15.75;;;4.20;99.90;;;;;;5079500;28;20033;-58
2023/01/24 04:48:51;;;;;;;24.17;16.00;;;4.00;99.90;;;;;;5062134;28;20342;-58
2023/01/24 04:51:17;;;;;;;23.45;15.45;;;3.70;99.90;;;;;;5061699;28;20048;-58
2023/01/24 04:53:45;;;;;;;22.25;15.23;;;3.60;99.90;;;;;;5062016;28;20043;-59
2023/01/24 04:56:13;;;;;;;25.17;15.88;;;3.70;99.90;;;;;;5062173;28;20060;-59
2023/01/24 04:58:38;;;;;;;24.02;15.40;;;3.70;99.90;;;;;;5061685;28;20391;-59
2023/01/24 05:01:05;;;;;;;21.42;15.48;;;3.80;99.90;;;;;;5061836;28;20025;-59
2023/01/24 05:03:35;;;;;;;24.70;16.63;;;3.80;99.90;;;;;;5061809;28;20058;-58
2023/01/24 05:06:02;;;;;;;23.80;16.00;;;3.80;99.90;;;;;;5061832;28;20036;-60
2023/01/24 05:08:28;;;;;;;22.63;15.13;;;3.90;99.90;;;;;;5061946;28;20047;-59
2023/01/24 05:10:54;;;;;;;23.83;15.40;;;4.10;99.90;;;;;;5061678;28;20127;-59
2023/01/24 05:13:20;;;;;;;23.17;15.90;;;4.00;99.90;;;;;;5061519;28;20085;-59
2023/01/24 05:15:50;;;;;;;23.80;15.65;;;4.20;99.90;;;;;;5062411;28;20032;-58
2023/01/24 05:18:20;;;;;;;24.35;16.10;;;4.30;99.90;;;;;;5061363;28;20033;-58
2023/01/24 05:20:46;;;;;;;22.85;15.50;;;4.20;99.90;;;;;;5061461;28;20371;-59
2023/01/24 05:23:12;;;;;;;24.77;16.35;;;4.20;99.90;;;;;;5061416;28;20052;-59
2023/01/24 05:25:41;;;;;;;22.38;15.98;;;4.40;99.90;;;;;;5061717;28;20029;-59
2023/01/24 05:28:08;;;;;;;23.05;15.27;;;4.00;99.90;;;;;;5045255;28;20430;-59
2023/01/24 05:30:40;;;;;;;24.98;15.73;;;3.90;99.90;;;;;;5061610;28;20127;-59
2023/01/24 05:33:17;;;;;;;24.98;16.73;;;3.90;99.90;;;;;;5061367;28;20040;-59
2023/01/24 05:35:44;;;;;;;24.70;15.93;;;3.80;99.90;;;;;;5061273;28;20304;-60
2023/01/24 05:38:11;;;;;;;26.13;16.58;;;3.80;99.90;;;;;;5061132;28;20090;-59
2023/01/24 05:40:37;;;;;;;23.08;15.63;;;3.90;99.90;;;;;;5061083;28;20032;-59
2023/01/24 05:43:05;;;;;;;25.85;16.83;;;3.90;99.90;;;;;;5078544;28;20089;-59
2023/01/24 05:45:31;;;;;;;25.10;15.95;;;4.00;99.90;;;;;;5061264;28;20057;-60
2023/01/24 05:47:57;;;;;;;23.88;16.17;;;4.00;99.90;;;;;;5061052;28;20029;-60
2023/01/24 05:50:23;;;;;;;25.30;16.25;;;4.00;99.90;;;;;;5060916;28;20320;-61
2023/01/24 05:53:09;;;;;;;25.70;16.42;;;4.00;99.90;;;;;;5063815;28;20040;-59
2023/01/24 05:55:35;;;;;;;25.17;16.60;;;4.10;99.90;;;;;;5060823;28;20296;-59
2023/01/24 05:58:01;;;;;;;24.13;16.75;;;3.90;99.90;;;;;;5078161;28;20400;-59
2023/01/24 06:00:47;;;;;;;24.02;15.68;;;3.80;99.90;;;;;;5063817;28;20040;-59
2023/01/24 06:03:34;;;;;;;24.38;15.60;;;3.90;99.90;;;;;;5049125;28;20032;-59
2023/01/24 06:06:00;;;;;;;25.30;16.50;;;3.90;99.90;;;;;;5060632;28;20033;-59
2023/01/24 06:08:28;;;;;;;24.10;16.23;;;4.00;99.90;;;;;;5078053;28;20308;-59
2023/01/24 06:10:54;;;;;;;24.95;16.23;;;4.00;99.90;;;;;;5060681;28;20040;-60
2023/01/24 06:13:22;;;;;;;27.17;16.65;;;4.00;99.90;;;;;;5060689;28;20047;-59
2023/01/24 06:15:48;;;;;;;25.60;16.42;;;4.00;99.90;;;;;;5077992;28;20033;-60
2023/01/24 06:18:17;;;;;;;24.95;16.90;;;4.00;99.90;;;;;;5060389;28;20033;-60
2023/01/24 06:20:44;;;;;;;24.58;15.98;;;3.90;99.90;;;;;;5061304;28;20081;-60
2023/01/24 06:23:22;;;;;;;26.73;17.67;;;4.10;99.90;;;;;;5078018;28;20104;-60
2023/01/24 06:25:48;;;;;;;28.70;17.05;;;4.20;99.90;;;;;;5060329;28;20029;-60
2023/01/24 06:28:14;;;;;;;28.08;17.77;;;4.20;99.90;;;;;;5077798;28;20039;-60
2023/01/24 06:30:43;;;;;;;28.50;17.90;;;4.20;99.90;;;;;;5060749;28;20047;-60
2023/01/24 06:33:30;;;;;;;26.73;17.77;;;4.20;99.90;;;;;;5077697;28;20064;-59
2023/01/24 06:36:17;;;;;;;28.10;18.48;;;4.20;99.90;;;;;;5077604;28;20028;-59
2023/01/24 06:38:43;;;;;;;26.45;18.33;;;4.10;99.90;;;;;;5077503;28;20028;-60
2023/01/24 06:41:18;;;;;;;26.67;18.35;;;4.10;99.90;;;;;;5078043;28;20430;-58
2023/01/24 06:43:44;;;;;;;27.40;18.10;;;4.20;99.90;;;;;;5060008;28;20109;-59
2023/01/24 06:46:11;;;;;;;26.23;17.73;;;4.10;99.90;;;;;;5077988;28;20064;-58
2023/01/24 06:48:37;;;;;;;26.83;18.38;;;3.90;99.90;;;;;;5077253;28;20132;-58
2023/01/24 06:51:03;;;;;;;28.67;19.00;;;4.00;99.90;;;;;;5077099;28;20415;-58
2023/01/24 06:53:29;;;;;;;24.98;17.38;;;4.00;99.90;;;;;;5059762;28;20040;-58
2023/01/24 06:55:55;;;;;;;28.65;18.30;;;4.10;99.90;;;;;;5077741;28;20033;-58
2023/01/24 06:58:20;;;;;;;25.98;17.17;;;3.90;99.90;;;;;;5077057;28;20078;-58
2023/01/24 07:00:46;;;;;;;26.30;17.42;;;3.90;99.90;;;;;;5077083;28;20028;-59
2023/01/24 07:03:12;;;;;;;26.67;18.80;;;4.00;99.90;;;;;;5077006;28;20272;-59
2023/01/24 07:05:38;;;;;;;30.77;19.42;;;4.10;99.90;;;;;;5043229;28;20056;-59
2023/01/24 07:08:05;;;;;;;33.47;20.88;;;3.80;99.90;;;;;;5076919;28;20098;-59
2023/01/24 07:10:32;;;;;;;33.15;21.42;;;4.00;99.90;;;;;;5076946;28;20036;-59
2023/01/24 07:12:58;;;;;;;33.03;21.77;;;4.30;99.90;;;;;;5076770;28;20036;-60
2023/01/24 07:15:24;;;;;;;33.65;21.88;;;4.20;99.90;;;;;;5059436;28;20033;-59
2023/01/24 07:17:50;;;;;;;31.73;21.55;;;4.20;99.90;;;;;;5076919;28;20033;-60
2023/01/24 07:20:17;;;;;;;35.50;22.10;;;3.90;99.90;;;;;;5076855;28;20111;-60
2023/01/24 07:22:43;;;;;;;32.05;21.58;;;3.80;99.90;;;;;;5076782;28;20032;-60
2023/01/24 07:25:13;;;;;;;32.28;22.30;;;3.80;99.90;;;;;;5076524;28;20304;-60
2023/01/24 07:27:40;;;;;;;32.70;21.73;;;3.80;99.90;;;;;;5077086;28;20106;-59
2023/01/24 07:30:06;;;;;;;33.85;22.63;;;3.90;99.90;;;;;;5059471;28;20052;-59
2023/01/24 07:32:32;;;;;;;32.13;20.80;;;3.90;99.90;;;;;;5059397;28;20130;-60
2023/01/24 07:34:58;;;;;;;32.22;21.20;;;3.80;99.90;;;;;;5076685;28;20052;-58
2023/01/24 07:37:24;;;;;;;35.38;22.25;;;3.80;99.90;;;;;;5076550;28;20051;-59
2023/01/24 07:39:50;;;;;;;32.83;22.30;;;3.80;99.90;;;;;;5076532;28;20384;-59
2023/01/24 07:42:15;;;;;;;31.85;21.48;;;3.70;99.90;;;;;;5059523;28;20021;-58
2023/01/24 07:44:41;;;;;;;35.40;22.77;;;3.80;99.90;;;;;;5076920;28;20078;-59
2023/01/24 07:47:07;;;;;;;35.25;22.60;;;3.80;99.90;;;;;;5076709;28;20112;-59
2023/01/24 07:49:33;;;;;;;33.78;22.58;;;3.80;99.90;;;;;;5076388;28;20056;-59
2023/01/24 07:51:58;;;;;;;36.35;23.55;;;4.00;99.90;;;;;;5059969;28;20124;-59
2023/01/24 07:54:24;;;;;;;35.33;23.23;;;4.10;99.90;;;;;;5076428;28;20036;-59
2023/01/24 07:56:51;;;;;;;33.58;23.48;;;4.10;99.90;;;;;;5077028;28;20406;-59
2023/01/24 07:59:17;;;;;;;36.50;22.60;;;4.20;99.90;;;;;;5076561;28;20392;-59
2023/01/24 08:01:42;;;;;;;32.17;22.25;;;4.20;99.90;;;;;;5059234;28;20135;-59
2023/01/24 08:04:09;;;;;;;35.10;21.83;;;3.80;99.90;;;;;;5059637;28;20037;-59
2023/01/24 08:06:35;;;;;;;31.63;20.52;;;3.90;99.90;;;;;;5058924;28;20070;-59
2023/01/24 08:09:00;;;;;;;31.85;21.75;;;3.80;99.90;;;;;;5076530;28;20063;-59
2023/01/24 08:11:26;;;;;;;33.78;22.80;;;3.80;99.90;;;;;;5076161;28;20040;-58
2023/01/24 08:13:52;;;;;;;31.90;21.90;;;3.70;99.90;;;;;;5076433;28;20115;-58
2023/01/24 08:16:23;;;;;;;30.45;20.73;;;3.80;99.90;;;;;;5058942;28;20043;-59
2023/01/24 08:18:49;;;;;;;30.25;20.60;;;3.70;99.90;;;;;;5058685;28;20052;-59
2023/01/24 08:21:16;;;;;;;34.47;21.38;;;3.70;99.90;;;;;;5076399;28;20032;-59
2023/01/24 08:23:41;;;;;;;31.33;21.38;;;3.60;99.90;;;;;;5059017;28;20033;-59
2023/01/24 08:26:07;;;;;;;34.53;22.13;;;3.70;99.90;;;;;;5061686;28;20104;-59
2023/01/24 08:28:33;;;;;;;33.42;22.17;;;3.80;99.90;;;;;;5062585;28;20033;-59
2023/01/24 08:30:59;;;;;;;31.40;21.23;;;3.80;99.90;;;;;;5063047;28;20326;-59
2023/01/24 08:33:25;;;;;;;31.02;20.80;;;3.90;99.90;;;;;;5079917;28;20086;-61
2023/01/24 08:35:51;;;;;;;27.55;18.65;;;3.80;99.90;;;;;;5079915;28;20329;-58
2023/01/24 08:38:17;;;;;;;27.90;18.58;;;3.60;99.90;;;;;;5079962;28;20063;-58
2023/01/24 08:40:43;;;;;;;27.88;18.05;;;3.70;99.90;;;;;;5079670;28;20034;-59
2023/01/24 08:43:09;;;;;;;25.10;17.10;;;3.80;99.90;;;;;;5062320;28;20315;-59
2023/01/24 08:45:35;;;;;;;26.00;17.35;;;3.60;99.90;;;;;;5061844;28;20032;-59
2023/01/24 08:48:01;;;;;;;26.90;17.42;;;3.60;99.90;;;;;;5079385;28;20074;-59
2023/01/24 08:50:27;;;;;;;26.73;17.05;;;3.60;99.90;;;;;;5079389;28;20365;-59
2023/01/24 08:52:57;;;;;;;27.05;17.52;;;3.70;99.90;;;;;;5079471;28;20040;-59
2023/01/24 08:55:24;;;;;;;27.15;17.52;;;3.70;99.90;;;;;;5079408;28;20029;-60
2023/01/24 08:57:50;;;;;;;26.48;17.13;;;3.60;99.90;;;;;;5079346;28;20063;-60
2023/01/24 09:00:16;;;;;;;27.48;18.50;;;3.50;99.90;;;;;;5079557;28;20269;-59
2023/01/24 09:02:42;;;;;;;27.08;18.08;;;3.70;99.90;;;;;;5062017;28;20103;-59
2023/01/24 09:05:08;;;;;;;25.20;17.17;;;3.70;99.90;;;;;;5079360;28;20159;-59
2023/01/24 09:07:36;;;;;;;25.20;17.08;;;3.90;99.90;;;;;;5045402;28;20418;-59
2023/01/24 09:10:03;;;;;;;25.98;17.15;;;4.00;99.90;;;;;;5079298;28;20035;-59
2023/01/24 09:12:31;;;;;;;24.98;16.70;;;4.00;99.90;;;;;;5079253;28;20033;-59
2023/01/24 09:14:57;;;;;;;25.48;17.60;;;4.00;99.90;;;;;;5079226;28;20028;-59
2023/01/24 09:17:24;;;;;;;24.02;16.73;;;3.90;99.90;;;;;;5079011;28;20381;-59
2023/01/24 09:19:50;;;;;;;25.30;17.05;;;4.00;99.90;;;;;;5079095;28;20034;-63
2023/01/24 09:22:15;;;;;;;23.70;16.25;;;4.10;99.90;;;;;;5079023;28;20123;-59
2023/01/24 09:24:41;;;;;;;23.85;15.85;;;4.00;99.90;;;;;;5078986;28;20354;-58
2023/01/24 09:27:07;;;;;;;24.10;16.25;;;3.90;99.90;;;;;;5079161;28;20042;-59
2023/01/24 09:29:33;;;;;;;23.38;16.05;;;4.00;99.90;;;;;;5061530;28;20058;-58
2023/01/24 09:31:58;;;;;;;22.83;15.45;;;4.10;99.90;;;;;;5061493;28;20028;-59
2023/01/24 09:34:24;;;;;;;25.50;16.50;;;4.20;99.90;;;;;;5079155;28;20410;-59
2023/01/24 09:36:50;;;;;;;25.20;16.33;;;4.40;99.90;;;;;;5077501;28;20036;-59
2023/01/24 09:39:17;;;;;;;24.13;15.55;;;4.40;99.90;;;;;;5078680;28;20460;-59
2023/01/24 09:41:51;;;;;;;22.05;15.40;;;4.50;99.90;;;;;;5044733;28;20355;-59
2023/01/24 09:44:55;;;;;;;24.60;16.08;;;4.60;99.90;;;;;;5079087;28;20021;-59
2023/01/24 09:47:31;;;;;;;24.25;15.57;;;4.40;99.90;;;;;;5078495;28;20028;-58
2023/01/24 09:50:03;;;;;;;23.02;15.18;;;4.40;99.90;;;;;;5078576;28;20343;-58
2023/01/24 09:52:58;;;;;;;22.85;14.82;;;4.00;99.90;;;;;;5078834;28;20043;-58
2023/01/24 09:55:39;;;;;;;22.92;15.05;;;3.80;99.90;;;;;;5076563;28;20036;-59
2023/01/24 09:58:18;;;;;;;21.77;15.23;;;4.00;99.90;;;;;;5078266;28;20124;-58
2023/01/24 10:00:45;;;;;;;23.20;15.77;;;4.20;99.90;;;;;;5078368;28;20021;-58
2023/01/24 10:03:18;;;;;;;21.42;14.90;;;4.20;99.90;;;;;;5060914;28;20289;-58
2023/01/24 10:05:50;;;;;;;23.17;15.23;;;4.10;99.90;;;;;;5078387;28;20045;-58
2023/01/24 10:08:37;;;;;;;23.92;15.50;;;4.30;99.90;;;;;;5078134;28;20024;-58
2023/01/24 10:11:20;;;;;;;20.45;14.40;;;4.30;99.90;;;;;;5078017;28;20025;-58
2023/01/24 10:14:05;;;;;;;22.42;14.00;;;4.20;99.90;;;;;;5078010;28;20299;-58
2023/01/24 10:16:54;;;;;;;21.95;14.27;;;4.30;99.90;;;;;;5077987;28;20055;-58
2023/01/24 10:19:37;;;;;;;21.27;14.25;;;4.30;99.90;;;;;;5077866;28;20039;-58
2023/01/24 10:22:20;;;;;;;22.63;14.75;;;4.20;99.90;;;;;;5077908;28;20075;-58
2023/01/24 10:25:21;;;;;;;20.70;13.52;;;3.90;99.90;;;;;;5060384;28;20108;-59
2023/01/24 10:27:51;;;;;;;22.58;14.80;;;3.90;99.90;;;;;;5078096;28;20374;-58
2023/01/24 10:30:20;;;;;;;21.83;13.98;;;3.90;99.90;;;;;;5077677;28;20273;-58
2023/01/24 10:32:51;;;;;;;20.92;14.45;;;3.80;99.90;;;;;;5077803;28;20462;-58
2023/01/24 10:35:23;;;;;;;22.85;14.63;;;3.80;99.90;;;;;;5077753;28;20039;-58
2023/01/24 10:37:55;;;;;;;22.15;14.60;;;3.90;99.90;;;;;;5077833;28;20059;-59
2023/01/24 10:40:24;;;;;;;20.80;14.15;;;4.10;99.90;;;;;;5043603;28;20021;-59
2023/01/24 10:42:50;;;;;;;20.20;13.68;;;4.20;99.90;;;;;;5077494;28;20032;-59
2023/01/24 10:45:22;;;;;;;22.13;14.25;;;4.10;99.90;;;;;;5060311;28;20037;-59
2023/01/24 10:47:56;;;;;;;15.43;10.47;;;3.90;99.90;;;;;;5077157;28;20025;-59
2023/01/24 10:50:23;;;;;;;21.55;14.48;;;4.10;99.90;;;;;;5076591;28;20435;-59
2023/01/24 10:52:49;;;;;;;19.40;13.70;;;4.20;99.90;;;;;;5059890;28;20044;-59
2023/01/24 10:55:37;;;;;;;22.08;14.93;;;4.30;99.90;;;;;;5059833;28;20028;-59
2023/01/24 10:58:25;;;;;;;21.00;14.38;;;4.40;99.90;;;;;;5077284;28;20036;-59
2023/01/24 11:01:28;;;;;;;21.55;14.32;;;4.50;99.90;;;;;;5077305;28;20036;-59
2023/01/24 11:03:54;;;;;;;21.17;14.00;;;4.60;99.90;;;;;;5068964;28;20040;-59
2023/01/24 11:06:38;;;;;;;20.80;14.27;;;4.60;99.90;;;;;;5077111;28;20036;-59
2023/01/24 11:09:13;;;;;;;20.85;14.05;;;4.60;99.90;;;;;;5077187;28;20281;-59
2023/01/24 11:11:52;;;;;;;19.60;13.27;;;4.30;99.90;;;;;;5077716;28;20052;-61
2023/01/24 11:14:33;;;;;;;20.35;14.25;;;4.20;99.90;;;;;;5043153;28;20028;-60
2023/01/24 11:17:01;;;;;;;18.83;13.30;;;4.40;99.90;;;;;;5059434;28;20090;-60
2023/01/24 11:19:42;;;;;;;22.23;14.55;;;4.50;99.90;;;;;;5077006;28;20063;-60
2023/01/24 11:22:23;;;;;;;21.25;14.52;;;4.50;99.90;;;;;;5077093;28;20056;-59
2023/01/24 11:24:50;;;;;;;20.17;14.90;;;4.60;99.90;;;;;;5076954;28;20052;-60
2023/01/24 11:27:18;;;;;;;22.00;14.40;;;4.60;99.90;;;;;;5076892;28;20068;-59
2023/01/24 11:29:45;;;;;;;20.98;14.73;;;4.80;99.90;;;;;;5059331;28;20028;-57
2023/01/24 11:32:45;;;;;;;22.02;14.80;;;4.70;99.90;;;;;;5076851;28;20020;-58
2023/01/24 11:35:16;;;;;;;20.77;14.20;;;4.80;99.90;;;;;;5077120;28;20051;-58
2023/01/24 11:37:45;;;;;;;20.40;13.50;;;4.80;99.90;;;;;;5076902;28;20086;-59
2023/01/24 11:40:38;;;;;;;21.63;14.57;;;5.00;99.90;;;;;;5076762;28;20063;-59
2023/01/24 11:43:12;;;;;;;20.05;13.65;;;5.20;99.90;;;;;;5076807;28;20067;-59
2023/01/24 11:46:14;;;;;;;20.77;13.90;;;5.20;99.90;;;;;;5076647;28;20304;-59
2023/01/24 11:49:04;;;;;;;21.02;13.55;;;5.30;99.90;;;;;;5076650;28;20064;-59
2023/01/24 11:51:46;;;;;;;20.33;13.75;;;5.30;99.90;;;;;;5076400;28;20403;-58
2023/01/24 11:54:39;;;;;;;21.60;13.40;;;5.00;99.90;;;;;;5076507;28;20040;-59
2023/01/24 11:57:08;;;;;;;20.25;13.50;;;4.90;99.90;;;;;;5076269;28;20270;-58
2023/01/24 11:59:54;;;;;;;20.77;13.77;;;4.90;99.90;;;;;;5077117;28;20323;-58
2023/01/24 12:02:43;;;;;;;20.85;14.00;;;4.80;99.90;;;;;;5080454;28;20024;-58
2023/01/24 12:05:24;;;;;;;20.80;13.90;;;4.90;99.90;;;;;;5080551;28;20027;-58
2023/01/24 12:07:59;;;;;;;22.65;14.02;;;4.70;99.90;;;;;;5080405;28;20411;-58
2023/01/24 12:10:49;;;;;;;20.65;14.13;;;4.60;99.90;;;;;;5080302;28;20029;-58
2023/01/24 12:14:01;;;;;;;20.40;14.35;;;4.80;99.90;;;;;;5080278;28;20087;-58
2023/01/24 12:16:48;;;;;;;22.15;13.95;;;5.00;99.90;;;;;;5080216;28;20028;-58
2023/01/24 12:19:32;;;;;;;19.73;13.43;;;5.10;99.90;;;;;;5080131;28;20039;-59
2023/01/24 12:21:59;;;;;;;21.25;13.98;;;5.10;99.90;;;;;;5080228;28;20085;-59
2023/01/24 12:24:40;;;;;;;19.15;13.40;;;5.10;99.90;;;;;;5062699;28;20128;-60
2023/01/24 12:27:14;;;;;;;20.88;13.57;;;4.70;99.90;;;;;;5062594;28;20052;-59
2023/01/24 12:29:46;;;;;;;19.30;13.30;;;4.60;99.90;;;;;;5080478;28;20029;-59
2023/01/24 12:32:35;;;;;;;20.33;13.93;;;4.40;99.90;;;;;;5080369;28;20036;-60
2023/01/24 12:35:19;;;;;;;19.10;13.02;;;4.60;99.90;;;;;;5079905;28;20036;-59
2023/01/24 12:37:55;;;;;;;20.33;13.95;;;4.60;99.90;;;;;;5079806;28;20032;-58
2023/01/24 12:40:28;;;;;;;18.67;12.60;;;4.80;99.90;;;;;;5079848;28;20043;-59
2023/01/24 12:43:00;;;;;;;20.95;14.07;;;4.80;99.90;;;;;;5080411;28;20036;-58
2023/01/24 12:45:35;;;;;;;25.47;14.07;;;4.70;99.90;;;;;;5062445;28;20035;-58
2023/01/24 12:48:18;;;;;;;19.25;12.95;;;4.90;99.90;;;;;;5079553;28;20040;-58
2023/01/24 12:50:56;;;;;;;20.10;13.52;;;5.10;99.90;;;;;;5062037;28;20053;-58
2023/01/24 12:53:33;;;;;;;18.92;12.55;;;5.10;99.90;;;;;;5028992;28;20400;-58
2023/01/24 12:56:11;;;;;;;17.95;12.77;;;5.10;99.90;;;;;;5062099;28;20044;-58
2023/01/24 12:58:43;;;;;;;16.92;12.25;;;4.90;99.90;;;;;;5079401;28;20033;-59
2023/01/24 13:01:25;;;;;;;18.63;12.63;;;4.90;99.90;;;;;;5079414;28;20033;-58
2023/01/24 13:03:54;;;;;;;;;;;5.00;99.90;;;;;;5079822;28;20024;-58
2023/01/24 13:06:38;;;;;;;21.65;13.38;;;5.20;99.90;;;;;;5079184;28;19978;-58
2023/01/24 13:09:13;;;;;;;22.00;14.65;;;4.90;99.90;;;;;;5061763;28;20047;-58
2023/01/24 13:11:48;;;;;;;21.05;14.20;;;4.80;99.90;;;;;;5061642;28;20145;-59
2023/01/24 13:14:13;;;;;;;20.25;13.57;;;4.60;99.90;;;;;;5079528;28;20027;-58
2023/01/24 13:17:05;;;;;;;21.70;14.10;;;4.70;99.90;;;;;;5079075;28;20021;-58
2023/01/24 13:19:58;;;;;;;20.27;13.13;;;4.70;99.90;;;;;;5053802;28;20044;-59
2023/01/24 13:22:31;;;;;;;20.23;13.52;;;4.80;99.90;;;;;;5061711;28;20071;-58
2023/01/24 13:25:06;;;;;;;20.80;13.60;;;4.80;99.90;;;;;;5079062;28;20033;-60
2023/01/24 13:28:14;;;;;;;20.70;14.23;;;4.80;99.90;;;;;;5061588;28;20025;-58
2023/01/24 13:30:48;;;;;;;21.60;13.68;;;4.90;99.90;;;;;;5058908;28;20128;-58
2023/01/24 13:33:19;;;;;;;20.52;13.35;;;5.00;99.90;;;;;;5078817;28;20082;-58
2023/01/24 13:35:52;;;;;;;23.85;14.95;;;4.80;99.90;;;;;;5078733;28;20021;-58
2023/01/24 13:38:23;;;;;;;22.88;15.40;;;4.70;99.90;;;;;;5078791;28;20406;-61